Chicago O'Hare International, IL (60666)

1:50 AM CST on December 08, 2016 (GMT -0600)
Rosemont | | Change Station

Elev 633 ft 41.99 °N, 87.87 °W | Updated 2 minutes ago

Light Snow
Light Snow
24.3 °F
Feels Like 24 °F
N
0.0
Wind Variable Wind from WNW
Gusts 1.0 mph

Today
High -- | Low -- °F
--% Chance of Precip.
Yesterday
High -- | Low -- °F
Precip. -- in
Pressure 30.17 in
Visibility 10.0 miles
Clouds Overcast 2700 ft
Windchill 24 °F
Dew Point 16 °F
Humidity 71%
Rainfall 0.00 in
Snow Depth Not available.
7:07 AM 4:20 PM
First Quarter, 61% visible
METAR KORD 080651Z 28018G30KT 10SM -SN OVC027 M04/M10 A3014 RMK AO2 PK WND 28030/0649 SLP215 P0000 T10441100
Pressure 30.17 in
Visibility 10.0 miles
Clouds Overcast 2700 ft
Windchill 24 °F
Dew Point 16 °F
Humidity 71%
Rainfall 0.00 in
Snow Depth Not available.
7:07 AM 4:20 PM
First Quarter, 61% visible
METAR KORD 080651Z 28018G30KT 10SM -SN OVC027 M04/M10 A3014 RMK AO2 PK WND 28030/0649 SLP215 P0000 T10441100

10-Day Weather Forecast

Almanac

Astronomy

Dec. 08, 2016 Rise Set
Actual Time
Civil Twilight
Nautical Twilight
Astronomical Twilight
Moon
Length of Visible Light
Length of Day
Tomorrow will be .
, % of the Moon is Illuminated

Today's Extremes

State Highs State Lows

Community

WunderPhotos

Upload Photos

1,956,259 photos uploaded!

WunderBlog® & News

Nearby

Air Quality

  Air Quality AQ Index Pollutant
Not available.

Snow Depth

Station Depth Elevation

Earthquake Activity

City Distance Mag. Time & Date
Minimum magnitude displayed is 2.5.

Coastal Water Temperatures

Place Temperature

Stations

Nearby Weather Stations

Station Location Temp. Windchill Dew Point Humidity Wind Precip. Elev Updated Type
                   

Watches & Warnings

There are currently no watches in effect.